Time;durP1;ratioP1;P1;durP2;ratioP2;P2;SDS_P1;SDS_P2;PMS_P1;PMS_P2;Temp;Humidity;BMP_temperature;BMP_pressure;BME280_temperature;BME280_humidity;BME280_pressure;Samples;Min_cycle;Max_cycle;Signal;HPM_P1;HPM_P2
2022/01/10 00:00:47;;;;;;;21.75;11.00;;;5.40;90.30;;;5.63;78.57;100260.78;4975456;28;20225;-72
2022/01/10 00:03:15;;;;;;;16.67;11.80;;;5.40;99.90;;;5.65;78.39;100264.94;4975571;28;20187;-71
2022/01/10 00:05:44;;;;;;;20.50;11.75;;;5.40;54.40;;;5.59;78.55;100260.31;4975417;28;20664;-72
2022/01/10 00:08:14;;;;;;;22.73;11.15;;;5.50;17.30;;;5.79;78.29;100270.50;4974979;28;20291;-71
2022/01/10 00:10:44;;;;;;;18.70;11.75;;;5.60;1.00;;;5.62;78.27;100280.56;4976419;28;20303;-69
2022/01/10 00:13:13;;;;;;;24.08;11.52;;;5.50;1.00;;;5.66;77.80;100282.69;4975684;28;20580;-72
2022/01/10 00:15:44;;;;;;;23.67;10.95;;;5.60;1.00;;;5.54;78.95;100289.56;4976946;28;20556;-69
2022/01/10 00:18:13;;;;;;;21.25;13.00;;;5.50;1.00;;;5.64;78.48;100298.16;4976433;28;20191;-69
2022/01/10 00:20:42;;;;;;;12.30;9.63;;;5.60;1.00;;;5.74;77.70;100294.38;4974627;28;20286;-71
2022/01/10 00:23:10;;;;;;;21.42;10.80;;;5.60;1.00;;;5.71;77.99;100303.66;4974016;28;20207;-70
2022/01/10 00:25:38;;;;;;;13.70;10.15;;;5.60;1.00;;;5.51;78.56;100306.03;4974848;28;20203;-70
2022/01/10 00:28:07;;;;;;;21.60;11.32;;;5.40;1.00;;;5.49;78.73;100308.06;4958010;28;20203;-70
2022/01/10 00:30:35;;;;;;;19.73;11.80;;;5.40;1.00;;;5.44;78.98;100318.50;4974745;28;20269;-71
2022/01/10 00:33:05;;;;;;;20.20;10.13;;;5.40;1.00;;;5.37;79.09;100324.81;4958739;28;20195;-72
2022/01/10 00:35:33;;;;;;;19.50;11.70;;;5.40;1.00;;;5.34;78.92;100325.97;4978031;28;20198;-71
2022/01/10 00:38:02;;;;;;;17.08;11.07;;;5.30;1.00;;;5.40;78.84;100327.94;4977424;28;20234;-70
2022/01/10 00:40:30;;;;;;;19.50;12.38;;;5.30;1.00;;;5.53;78.59;100333.50;4976418;28;20231;-72
2022/01/10 00:42:59;;;;;;;19.05;11.48;;;5.40;1.00;;;5.43;78.62;100334.78;4959303;28;20215;-71
2022/01/10 00:45:29;;;;;;;16.38;9.52;;;5.40;1.00;;;5.38;79.28;100338.00;4975559;28;20192;-71
2022/01/10 00:48:00;;;;;;;17.25;10.80;;;5.30;1.00;;;5.32;79.44;100341.44;4977036;28;20214;-71
2022/01/10 00:50:31;;;;;;;16.42;10.75;;;5.30;1.00;;;5.39;79.03;100346.91;4975909;28;20227;-71
2022/01/10 00:53:00;;;;;;;18.55;10.93;;;5.30;1.00;;;5.46;79.27;100346.00;4976957;28;20172;-71
2022/01/10 00:55:30;;;;;;;17.60;10.70;;;5.30;1.00;;;5.38;78.99;100348.75;4974889;28;20223;-71
2022/01/10 00:57:58;;;;;;;22.98;10.50;;;5.30;1.00;;;5.38;78.98;100350.59;4972970;28;20192;-71
2022/01/10 01:00:27;;;;;;;25.27;12.75;;;5.30;1.00;;;5.44;79.07;100364.13;4974347;28;20215;-72
2022/01/10 01:02:58;;;;;;;15.52;12.18;;;5.30;1.00;;;5.41;78.95;100366.34;4973073;28;20270;-71
2022/01/10 01:05:33;;;;;;;21.42;11.70;;;5.30;1.00;;;5.31;78.98;100374.66;4972761;28;20206;-71
2022/01/10 01:08:05;;;;;;;24.23;10.70;;;5.20;1.00;;;5.33;78.94;100377.97;4974699;28;20179;-70
2022/01/10 01:13:34;;;;;;;20.77;10.30;;;5.30;1.00;;;5.39;78.73;100387.16;4950325;28;20207;-71
2022/01/10 01:16:15;;;;;;;17.38;12.60;;;5.30;1.00;;;5.27;78.97;100399.34;4973902;28;20194;-70
2022/01/10 01:19:10;;;;;;;17.50;11.52;;;5.20;1.00;;;5.19;79.44;100400.22;4973242;28;20203;-70
2022/01/10 01:24:27;;;;;;;20.70;11.80;;;5.20;1.00;;;5.46;78.65;100409.56;4973472;28;20213;-69
2022/01/10 01:26:56;;;;;;;19.45;12.85;;;5.30;1.00;;;5.55;78.14;100422.75;4973483;28;20246;-71
2022/01/10 01:29:29;;;;;;;25.60;11.95;;;5.40;1.00;;;5.35;78.45;100423.41;4974083;28;20191;-69
2022/01/10 01:31:58;;;;;;;16.30;11.18;;;5.30;99.90;;;5.29;78.74;100418.75;4972731;28;20334;-70
2022/01/10 01:34:27;;;;;;;18.95;11.70;;;5.30;99.90;;;5.38;79.16;100429.25;4972515;28;20218;-68
2022/01/10 01:36:57;;;;;;;18.65;9.95;;;5.20;99.90;;;5.31;78.70;100428.31;4956277;28;20638;-70
2022/01/10 01:39:30;;;;;;;24.92;11.15;;;5.30;99.90;;;5.35;78.99;100437.66;4973090;28;20677;-68
2022/01/10 01:42:17;;;;;;;17.35;11.30;;;5.30;99.90;;;5.28;78.81;100430.53;5038404;23;20710;-68
2022/01/10 01:44:49;;;;;;;18.63;10.75;;;5.30;99.90;;;5.46;78.51;100445.28;4994824;28;20167;-66
2022/01/10 01:47:18;;;;;;;23.92;12.15;;;5.40;99.90;;;5.34;79.19;100462.81;4976441;28;20245;-69
2022/01/10 01:49:49;;;;;;;30.00;11.32;;;5.30;99.90;;;5.30;78.75;100461.50;4976893;28;20659;-68
2022/01/10 01:52:19;;;;;;;19.40;10.57;;;5.20;99.90;;;5.38;78.51;100466.81;4958534;28;20211;-69
2022/01/10 01:54:47;;;;;;;18.52;11.65;;;5.30;1.00;;;5.38;78.82;100476.69;4957852;28;20230;-68
2022/01/10 01:57:16;;;;;;;18.38;10.50;;;5.30;99.90;;;5.40;78.24;100480.88;4957533;28;20694;-68
2022/01/10 01:59:44;;;;;;;17.00;9.77;;;5.30;99.90;;;5.38;79.03;100482.91;4957599;28;20278;-69
2022/01/10 02:02:13;;;;;;;25.92;10.63;;;5.30;99.90;;;5.41;78.50;100487.94;4957033;28;20270;-68
2022/01/10 02:04:41;;;;;;;19.05;12.32;;;5.30;99.90;;;5.61;78.48;100491.81;4974567;28;20234;-69
2022/01/10 02:07:11;;;;;;;21.60;10.82;;;5.40;99.90;;;5.61;77.82;100494.50;4974740;28;20720;-69
2022/01/10 02:09:44;;;;;;;20.38;11.45;;;5.40;99.90;;;5.65;77.82;100494.97;4956873;28;20225;-67
2022/01/10 02:12:13;;;;;;;19.30;10.60;;;5.50;99.90;;;5.62;77.50;100506.88;4956977;28;20650;-68
2022/01/10 02:14:46;;;;;;;20.27;11.60;;;5.50;99.90;;;5.47;77.99;100508.66;4956773;28;20218;-67
2022/01/10 02:17:21;;;;;;;22.05;10.77;;;5.40;99.90;;;5.46;78.12;100520.44;4956804;28;20199;-67
2022/01/10 02:19:56;;;;;;;14.57;10.00;;;5.40;99.90;;;5.42;78.55;100521.78;4956965;28;20180;-67
2022/01/10 02:22:27;;;;;;;18.67;10.27;;;5.40;99.90;;;5.43;78.66;100528.81;4956753;28;20582;-68
2022/01/10 02:25:14;;;;;;;13.40;10.50;;;5.30;99.90;;;5.51;78.41;100530.63;4956821;28;20187;-68
2022/01/10 02:27:45;;;;;;;16.33;10.15;;;5.40;99.90;;;5.62;78.13;100539.09;4974068;28;20206;-68
2022/01/10 02:30:13;;;;;;;23.77;11.25;;;5.40;99.90;;;5.52;78.47;100543.84;4958002;28;20401;-66
2022/01/10 02:32:42;;;;;;;18.50;10.07;;;5.40;99.90;;;5.44;78.61;100540.41;4980522;28;20204;-68
2022/01/10 02:35:23;;;;;;;23.58;12.10;;;5.40;99.90;;;5.46;78.73;100549.97;4962972;28;20193;-68
2022/01/10 02:37:53;;;;;;;18.25;9.65;;;5.40;99.90;;;5.44;78.72;100551.97;4963096;28;20253;-66
2022/01/10 02:40:23;;;;;;;24.70;11.20;;;5.40;99.90;;;5.67;77.82;100563.56;4962938;28;20215;-67
2022/01/10 02:42:53;;;;;;;22.17;10.60;;;5.50;99.90;;;5.47;78.56;100556.16;4980329;28;20211;-68
2022/01/10 02:45:22;;;;;;;19.92;10.93;;;5.40;99.90;;;5.47;78.18;100567.72;4963023;28;20195;-67
2022/01/10 02:47:52;;;;;;;14.25;10.10;;;5.40;99.90;;;5.50;78.95;100567.38;4963151;28;20180;-68
2022/01/10 02:50:22;;;;;;;17.85;9.70;;;5.40;99.90;;;5.52;78.59;100565.31;4980470;28;20210;-67
2022/01/10 02:52:51;;;;;;;22.80;11.13;;;5.40;99.90;;;5.42;78.90;100586.19;4963165;28;20183;-67
2022/01/10 02:55:20;;;;;;;21.40;11.30;;;5.40;99.90;;;5.60;78.19;100573.34;4962889;28;20211;-67
2022/01/10 02:57:48;;;;;;;18.38;11.52;;;5.40;99.90;;;5.49;78.02;100587.16;4980309;28;20190;-68
2022/01/10 03:00:20;;;;;;;21.98;10.52;;;5.40;99.90;;;5.53;77.88;100593.84;4963024;28;20215;-68
2022/01/10 03:02:52;;;;;;;22.90;10.10;;;5.40;99.90;;;5.56;78.07;100598.88;4962845;28;20242;-68
2022/01/10 03:05:25;;;;;;;22.15;10.70;;;5.40;99.90;;;5.46;78.74;100608.16;4963255;28;20735;-68
2022/01/10 03:07:56;;;;;;;24.98;11.18;;;5.40;99.90;;;5.37;78.79;100607.38;4980314;28;20559;-68
2022/01/10 03:10:25;;;;;;;18.25;10.70;;;5.40;99.90;;;5.35;79.09;100611.22;4962884;28;20219;-67
2022/01/10 03:12:53;;;;;;;16.65;10.07;;;5.40;99.90;;;5.55;78.44;100607.94;4963263;28;20275;-66
2022/01/10 03:15:21;;;;;;;17.60;10.95;;;5.40;99.90;;;5.55;78.06;100618.69;4980358;28;20197;-67
2022/01/10 03:17:50;;;;;;;14.25;10.00;;;5.40;99.90;;;5.51;77.95;100627.25;4963070;28;20191;-68
2022/01/10 03:20:19;;;;;;;13.43;8.90;;;5.40;99.90;;;5.62;78.27;100633.03;4980476;28;20269;-68
2022/01/10 03:22:48;;;;;;;26.48;11.40;;;5.40;99.90;;;5.49;78.45;100635.47;4963030;28;20712;-69
2022/01/10 03:25:17;;;;;;;19.20;10.05;;;5.40;99.90;;;5.41;78.51;100629.31;4962924;28;20667;-68
2022/01/10 03:27:48;;;;;;;15.80;10.00;;;5.30;99.90;;;5.42;78.70;100634.47;4963183;28;20234;-67
2022/01/10 03:30:17;;;;;;;21.58;11.15;;;5.40;99.90;;;5.46;78.38;100643.03;4962905;28;20602;-68
2022/01/10 03:32:48;;;;;;;17.15;8.80;;;5.40;99.90;;;5.47;78.27;100642.03;4963222;28;20700;-68
2022/01/10 03:35:28;;;;;;;22.27;10.02;;;5.40;99.90;;;5.47;78.28;100650.09;4962363;28;20191;-68
2022/01/10 03:37:58;;;;;;;15.68;11.00;;;5.40;99.90;;;5.52;78.10;100659.25;4962447;28;20198;-69
2022/01/10 03:40:31;;;;;;;17.77;10.23;;;5.40;99.90;;;5.48;78.56;100657.94;4962284;28;20306;-68
2022/01/10 03:43:04;;;;;;;17.42;9.68;;;5.40;99.90;;;5.56;77.92;100659.78;4959720;28;20747;-68
2022/01/10 03:45:33;;;;;;;14.93;10.32;;;5.40;99.90;;;5.47;78.52;100669.69;4959241;28;20250;-68
2022/01/10 03:48:01;;;;;;;17.63;10.90;;;5.40;99.90;;;5.48;78.40;100666.00;4959439;28;20179;-66
2022/01/10 03:50:31;;;;;;;15.98;10.40;;;5.40;99.90;;;5.37;78.45;100670.94;4959537;28;20215;-68
2022/01/10 03:53:01;;;;;;;29.08;10.60;;;5.40;99.90;;;5.31;78.97;100669.78;4959302;28;20188;-68
2022/01/10 03:55:29;;;;;;;16.10;10.70;;;5.30;99.90;;;5.38;78.38;100669.91;4959637;28;20218;-68
2022/01/10 03:58:00;;;;;;;21.08;12.05;;;5.30;99.90;;;5.43;78.29;100679.09;4959506;28;20195;-67
2022/01/10 04:00:28;;;;;;;19.73;10.45;;;5.40;99.90;;;5.28;78.88;100675.47;4959172;28;20253;-67
2022/01/10 04:03:01;;;;;;;14.88;10.25;;;5.30;99.90;;;5.42;78.49;100688.16;4976633;28;20258;-68
2022/01/10 04:05:36;;;;;;;23.27;12.02;;;5.40;99.90;;;5.37;78.56;100701.28;4959813;28;20278;-68
2022/01/10 04:08:06;;;;;;;19.63;11.30;;;5.30;99.90;;;5.24;79.06;100709.88;4978066;28;20176;-67
2022/01/10 04:11:00;;;;;;;20.65;10.82;;;5.30;99.90;;;5.34;78.89;100711.50;4976684;28;20234;-68
2022/01/10 04:13:30;;;;;;;22.75;10.23;;;5.30;99.90;;;5.39;78.86;100715.34;4959261;28;20219;-68
2022/01/10 04:15:58;;;;;;;17.90;11.50;;;5.30;99.90;;;5.45;78.46;100720.03;4960245;28;20566;-68
2022/01/10 04:18:28;;;;;;;22.77;10.48;;;5.40;99.90;;;5.47;78.45;100718.00;4959116;28;20195;-67
2022/01/10 04:20:56;;;;;;;16.23;12.07;;;5.40;99.90;;;5.46;78.24;100729.75;4959188;28;20230;-68
2022/01/10 04:23:26;;;;;;;14.60;10.50;;;5.40;99.90;;;5.34;78.46;100725.75;4976513;28;20203;-68
2022/01/10 04:25:54;;;;;;;14.85;10.52;;;5.30;99.90;;;5.36;78.44;100729.13;4959427;28;20583;-68
2022/01/10 04:28:23;;;;;;;17.38;10.35;;;5.30;99.90;;;5.44;77.99;100733.63;4960498;28;20202;-67
2022/01/10 04:30:51;;;;;;;24.13;12.00;;;5.40;99.90;;;5.33;78.52;100734.81;4978450;28;20230;-66
2022/01/10 04:33:21;;;;;;;26.77;11.35;;;5.40;99.90;;;5.29;79.09;100735.34;4960000;28;20191;-68
2022/01/10 04:35:51;;;;;;;19.27;10.32;;;5.30;99.90;;;5.35;79.04;100746.22;4961044;28;20627;-68
2022/01/10 04:38:19;;;;;;;17.83;12.20;;;5.30;99.90;;;5.38;78.70;100751.25;4978262;28;20275;-68
2022/01/10 04:40:49;;;;;;;17.35;10.85;;;5.30;99.90;;;5.47;78.20;100754.75;4977558;28;20605;-69
2022/01/10 04:43:18;;;;;;;15.45;9.80;;;5.40;99.90;;;5.48;77.86;100762.63;4959132;28;20671;-67
2022/01/10 04:45:46;;;;;;;24.00;10.90;;;5.40;99.90;;;5.27;79.00;100764.19;4977485;28;20524;-69
2022/01/10 04:48:17;;;;;;;23.98;10.10;;;5.20;99.90;;;5.35;78.47;100767.69;4960288;28;20250;-68
2022/01/10 04:51:11;;;;;;;17.02;11.18;;;5.30;99.90;;;5.41;78.71;100776.91;4976453;28;20208;-68
2022/01/10 04:53:42;;;;;;;21.17;10.48;;;5.30;99.90;;;5.44;78.41;100788.13;4960251;28;20190;-68
2022/01/10 04:56:14;;;;;;;27.25;10.60;;;5.40;99.90;;;5.39;78.52;100792.34;4958787;28;20195;-68
2022/01/10 04:58:45;;;;;;;18.20;10.90;;;5.30;99.90;;;5.42;78.22;100795.50;4958302;28;20191;-68
2022/01/10 05:01:15;;;;;;;20.98;12.00;;;5.40;99.90;;;5.45;78.24;100802.38;4958065;28;20211;-68
2022/01/10 05:03:45;;;;;;;24.48;10.45;;;5.40;99.90;;;5.35;78.21;100812.47;4958013;28;20219;-67
2022/01/10 05:06:13;;;;;;;25.88;12.20;;;5.30;99.90;;;5.31;78.67;100813.81;4958130;28;20199;-69
2022/01/10 05:08:42;;;;;;;24.55;11.50;;;5.30;99.90;;;5.25;78.72;100826.91;4975648;28;20653;-67
2022/01/10 05:11:16;;;;;;;12.98;9.95;;;5.20;99.90;;;5.20;79.10;100823.91;4957918;28;20212;-69
2022/01/10 05:13:45;;;;;;;20.92;10.70;;;5.20;99.90;;;5.26;78.79;100827.75;4957879;28;20183;-69
2022/01/10 05:16:14;;;;;;;22.50;12.45;;;5.20;99.90;;;5.24;78.82;100830.59;4957668;28;20270;-68
2022/01/10 05:18:43;;;;;;;23.65;11.98;;;5.20;99.90;;;5.20;79.36;100836.47;4957712;28;20192;-68
2022/01/10 05:21:13;;;;;;;19.73;11.18;;;5.20;99.90;;;5.27;78.98;100839.31;4957176;28;20302;-68
2022/01/10 05:23:41;;;;;;;23.50;12.90;;;5.20;99.90;;;5.22;79.38;100853.25;4973325;28;20204;-67
2022/01/10 05:26:10;;;;;;;18.00;12.25;;;5.20;99.90;;;5.23;79.32;100846.84;4957470;28;20253;-68
2022/01/10 05:28:43;;;;;;;24.25;11.35;;;5.20;99.90;;;5.20;79.41;100850.72;4957552;28;20242;-68
2022/01/10 05:31:12;;;;;;;18.08;11.07;;;5.20;99.90;;;5.23;78.95;100855.75;4957414;28;20218;-67
2022/01/10 05:33:52;;;;;;;22.10;12.15;;;5.20;99.90;;;5.21;79.39;100859.63;4957244;28;20183;-68
2022/01/10 05:36:20;;;;;;;17.90;11.02;;;5.20;99.90;;;5.38;78.75;100873.84;4974683;28;20522;-67
2022/01/10 05:38:49;;;;;;;20.00;11.40;;;5.20;99.90;;;5.24;78.71;100872.69;4957504;28;20192;-67
2022/01/10 05:41:17;;;;;;;20.42;11.57;;;5.20;99.90;;;5.21;79.15;100878.38;4974439;28;20574;-66
2022/01/10 05:43:47;;;;;;;17.95;11.90;;;5.20;99.90;;;5.33;78.96;100887.75;4957275;28;20302;-68
2022/01/10 05:46:19;;;;;;;14.48;10.25;;;5.20;99.90;;;5.26;79.12;100897.50;4957466;28;20187;-67
2022/01/10 05:48:52;;;;;;;18.85;12.90;;;5.20;99.90;;;5.31;79.20;100895.16;4957889;28;20194;-67
2022/01/10 05:51:22;;;;;;;22.45;12.52;;;5.20;99.90;;;5.30;79.32;100898.84;4957494;28;20699;-68
2022/01/10 05:53:57;;;;;;;26.73;14.05;;;5.20;1.00;;;5.30;78.60;100904.22;4957138;28;20207;-68
2022/01/10 05:56:26;;;;;;;16.00;11.20;;;5.20;99.90;;;5.36;78.62;100916.13;4956994;28;20238;-68
2022/01/10 05:59:00;;;;;;;20.65;13.32;;;5.20;99.90;;;5.44;78.06;100918.78;4957088;28;20223;-69
2022/01/10 06:01:29;;;;;;;22.15;12.70;;;5.30;99.90;;;5.35;78.79;100922.50;4956879;28;20321;-68
2022/01/10 06:04:06;;;;;;;17.65;11.65;;;5.30;99.90;;;5.34;79.03;100927.00;4956872;28;20695;-67
2022/01/10 06:06:40;;;;;;;18.33;10.93;;;5.30;99.90;;;5.37;78.60;100932.06;4956576;28;20198;-67
2022/01/10 06:09:09;;;;;;;15.15;11.52;;;5.30;99.90;;;5.44;78.23;100937.59;4956969;28;20279;-67
2022/01/10 06:11:40;;;;;;;21.08;11.02;;;5.30;99.90;;;5.41;78.08;100952.19;4956629;28;20215;-69
2022/01/10 06:14:13;;;;;;;18.52;11.65;;;5.40;99.90;;;5.34;78.43;100947.63;4956851;28;20192;-68
2022/01/10 06:16:41;;;;;;;15.27;11.77;;;5.30;99.90;;;5.42;78.11;100958.41;4956902;28;20198;-69
2022/01/10 06:19:11;;;;;;;17.60;10.93;;;5.40;99.90;;;5.27;78.79;100963.59;4957045;28;20199;-68
2022/01/10 06:21:40;;;;;;;21.58;11.02;;;5.30;99.90;;;5.43;78.24;100971.63;4956693;28;20223;-67
2022/01/10 06:24:09;;;;;;;19.67;11.77;;;5.30;99.90;;;5.36;78.36;100970.63;4956670;28;20227;-67
2022/01/10 06:26:38;;;;;;;19.75;11.65;;;5.30;99.90;;;5.27;79.01;100982.38;4974016;28;20234;-70
2022/01/10 06:29:06;;;;;;;18.02;10.63;;;5.20;99.90;;;5.37;78.73;100985.75;4972914;28;20286;-68
2022/01/10 06:31:36;;;;;;;21.33;11.90;;;5.30;99.90;;;5.39;78.46;100988.22;4974152;28;20719;-69
2022/01/10 06:34:12;;;;;;;25.10;10.82;;;5.30;99.90;;;5.37;78.53;100977.69;4956565;28;20191;-68
2022/01/10 06:36:41;;;;;;;16.77;10.82;;;5.30;99.90;;;5.49;77.85;100988.91;4956772;28;20238;-68
2022/01/10 06:39:09;;;;;;;16.98;9.95;;;5.40;99.90;;;5.48;77.69;100990.75;4956700;28;20191;-68
2022/01/10 06:41:41;;;;;;;16.77;10.90;;;5.40;99.90;;;5.45;78.17;101001.84;4956738;28;20595;-69
2022/01/10 06:44:09;;;;;;;21.10;12.73;;;5.40;99.90;;;5.38;77.86;101000.81;4973746;28;20215;-67
2022/01/10 06:47:02;;;;;;;20.20;11.82;;;5.40;99.90;;;5.32;78.58;101014.91;4981985;28;20254;-66
2022/01/10 06:49:30;;;;;;;19.48;10.48;;;5.40;99.90;;;5.49;77.61;101029.19;4963005;28;20183;-70
2022/01/10 06:51:59;;;;;;;19.65;11.63;;;5.40;99.90;;;5.38;78.12;101030.34;4957042;28;20450;-70
2022/01/10 06:54:27;;;;;;;23.75;12.55;;;5.40;99.90;;;5.33;78.84;101032.66;4956827;28;20191;-65
2022/01/10 06:56:58;;;;;;;24.77;11.40;;;5.30;99.90;;;5.46;78.05;101043.78;4957047;28;20198;-68
2022/01/10 06:59:29;;;;;;;18.45;10.93;;;5.40;99.90;;;5.45;78.06;101050.16;4960126;28;20312;-69
2022/01/10 07:01:58;;;;;;;21.58;11.48;;;5.40;99.90;;;5.36;78.34;101058.34;4965557;28;20219;-67
2022/01/10 07:05:21;;;;;;;24.67;13.60;;;5.40;99.90;;;5.40;79.03;101067.75;4963544;28;20239;-68
2022/01/10 07:07:52;;;;;;;21.33;12.52;;;5.30;99.90;;;5.54;78.48;101067.94;4957565;28;20188;-68
2022/01/10 07:10:33;;;;;;;18.38;11.75;;;5.40;99.90;;;5.62;77.59;101081.38;4956490;28;20306;-67
2022/01/10 07:13:02;;;;;;;23.35;12.90;;;5.40;99.90;;;5.53;77.67;101093.09;4956900;28;20188;-68
2022/01/10 07:15:32;;;;;;;17.00;11.50;;;5.40;99.90;;;5.49;77.74;101097.13;4956863;28;20188;-66
2022/01/10 07:18:04;;;;;;;30.67;11.85;;;5.40;99.90;;;5.56;77.59;101103.53;4958548;28;20283;-66
2022/01/10 07:20:38;;;;;;;18.10;11.90;;;5.50;99.90;;;5.47;77.91;101107.16;4959821;28;20262;-68
2022/01/10 07:23:08;;;;;;;18.17;11.75;;;5.40;99.90;;;5.41;77.88;101112.38;4959840;28;20188;-69
2022/01/10 07:25:37;;;;;;;17.25;12.13;;;5.40;99.90;;;5.45;77.85;101121.78;4977069;28;20258;-68
2022/01/10 07:28:07;;;;;;;20.27;10.60;;;5.40;99.90;;;5.45;77.79;101119.94;4976816;28;20270;-66
2022/01/10 07:30:35;;;;;;;25.52;12.18;;;5.40;99.90;;;5.31;78.58;101131.28;4976741;28;20243;-69
2022/01/10 07:33:04;;;;;;;20.50;11.32;;;5.30;99.90;;;5.35;78.60;101139.84;4959130;28;20667;-69
2022/01/10 07:35:32;;;;;;;19.42;11.00;;;5.30;99.90;;;5.39;78.26;101150.09;4976933;28;20195;-68
2022/01/10 07:38:02;;;;;;;18.80;11.38;;;5.30;99.90;;;5.32;78.41;101157.13;4976897;28;20199;-67
2022/01/10 07:40:48;;;;;;;19.20;11.00;;;5.20;99.90;;;5.32;78.57;101154.44;4977505;28;20211;-67
2022/01/10 07:43:17;;;;;;;18.27;10.57;;;5.20;99.90;;;5.42;78.20;101165.88;4962024;28;20212;-70
2022/01/10 07:45:54;;;;;;;20.70;12.85;;;5.30;99.90;;;5.36;78.24;101174.59;4961431;29;20219;-71
2022/01/10 07:48:24;;;;;;;25.92;15.02;;;5.30;99.90;;;5.31;78.41;101178.75;4965749;29;20192;-72
2022/01/10 07:50:52;;;;;;;18.15;11.57;;;5.30;99.90;;;5.45;78.36;101183.50;4964821;28;20188;-72
2022/01/10 07:53:22;;;;;;;17.17;12.88;;;5.40;99.90;;;5.45;77.87;101189.72;4963491;29;20188;-71
2022/01/10 07:55:50;;;;;;;24.02;13.07;;;5.40;99.90;;;5.45;78.22;101197.78;4960657;28;20561;-70
2022/01/10 07:58:19;;;;;;;17.10;11.70;;;5.30;99.90;;;5.56;78.04;101200.19;4957544;29;20199;-69
2022/01/10 08:00:47;;;;;;;22.33;11.77;;;5.40;99.90;;;5.52;78.13;101206.00;4955755;29;20196;-71
2022/01/10 08:03:16;;;;;;;23.95;12.15;;;5.40;99.90;;;5.57;77.54;101212.56;4956753;28;20184;-69
2022/01/10 08:05:44;;;;;;;20.52;12.65;;;5.50;99.90;;;5.44;78.12;101217.56;4956160;29;20211;-69
2022/01/10 08:08:13;;;;;;;19.23;10.88;;;5.40;99.90;;;5.42;78.50;101224.09;4956450;29;20243;-70
2022/01/10 08:10:43;;;;;;;16.63;11.05;;;5.30;99.90;;;5.50;78.15;101227.66;4946786;29;20239;-71
2022/01/10 08:13:11;;;;;;;23.25;13.70;;;5.40;99.90;;;5.53;77.67;101238.06;4955951;28;20200;-71
2022/01/10 08:15:40;;;;;;;18.45;13.85;;;5.50;99.90;;;5.50;78.02;101238.41;4955802;28;20199;-68
2022/01/10 08:18:09;;;;;;;26.83;12.75;;;5.50;99.90;;;5.33;77.99;101241.97;4954801;28;20704;-69
2022/01/10 08:20:39;;;;;;;23.52;13.02;;;5.40;99.90;;;5.41;78.34;101260.84;4955597;29;20712;-69
2022/01/10 08:23:12;;;;;;;19.63;12.23;;;5.40;99.90;;;5.50;78.36;101257.19;4955596;29;20294;-72
2022/01/10 08:25:42;;;;;;;22.48;12.25;;;5.40;99.90;;;5.63;77.57;101259.41;4955148;29;20439;-70
2022/01/10 08:28:13;;;;;;;23.77;12.02;;;5.50;99.90;;;5.72;77.07;101265.66;4955110;28;20200;-70
2022/01/10 08:30:48;;;;;;;23.63;12.00;;;5.50;99.90;;;5.73;77.17;101267.34;4957138;28;20260;-70
2022/01/10 08:33:29;;;;;;;18.10;12.45;;;5.60;99.90;;;5.59;77.35;101269.63;4960014;28;20278;-69
2022/01/10 08:35:59;;;;;;;21.40;13.10;;;5.50;99.90;;;5.55;77.86;101270.97;4959100;28;20238;-69
2022/01/10 08:38:39;;;;;;;20.55;12.05;;;5.50;99.90;;;5.53;78.02;101275.66;4962076;28;20243;-70
2022/01/10 08:41:15;;;;;;;27.58;15.32;;;5.50;99.90;;;5.39;78.64;101283.44;4958713;28;20238;-71
2022/01/10 08:43:54;;;;;;;19.25;12.88;;;5.40;99.90;;;5.44;78.46;101291.88;4962060;28;20211;-70
2022/01/10 08:46:26;;;;;;;21.35;14.20;;;5.30;99.90;;;5.68;77.41;101295.53;4960074;28;20220;-69
2022/01/10 08:49:08;;;;;;;25.88;16.90;;;5.50;99.90;;;5.71;77.01;101305.13;4961123;29;20196;-71
2022/01/10 08:51:43;;;;;;;32.08;12.55;;;5.50;99.90;;;5.60;77.79;101303.53;4975928;28;20318;-70
2022/01/10 08:54:13;;;;;;;25.45;14.15;;;5.50;99.90;;;5.62;77.40;101311.41;4962388;29;20207;-71
2022/01/10 08:56:44;;;;;;;23.20;13.85;;;5.50;99.90;;;5.69;77.46;101318.69;4964200;29;20195;-69
2022/01/10 08:59:17;;;;;;;22.83;14.80;;;5.50;99.90;;;5.67;77.09;101328.75;4964867;29;20207;-70
2022/01/10 09:01:51;;;;;;;21.98;14.38;;;5.50;99.90;;;5.85;76.26;101334.06;4959300;29;20772;-70
2022/01/10 09:04:20;;;;;;;20.90;13.70;;;5.70;99.90;;;5.84;77.06;101343.09;4958783;29;20224;-71
2022/01/10 09:06:51;;;;;;;21.48;13.45;;;5.70;99.90;;;5.68;77.05;101343.00;4955389;29;20204;-71
2022/01/10 09:09:20;;;;;;;19.67;14.90;;;5.60;99.90;;;5.90;76.89;101363.16;4966951;28;20195;-70
2022/01/10 09:11:51;;;;;;;21.00;15.50;;;5.60;99.90;;;5.69;76.73;101350.91;4974912;28;20215;-71
2022/01/10 09:14:20;;;;;;;24.25;13.73;;;5.60;99.90;;;5.71;77.29;101355.28;4970346;28;20258;-71
2022/01/10 09:16:49;;;;;;;20.27;13.10;;;5.60;99.90;;;5.72;76.67;101362.31;4954839;29;20188;-71
2022/01/10 09:19:17;;;;;;;21.00;13.88;;;5.60;99.90;;;5.54;77.46;101363.25;4955119;28;20192;-70
2022/01/10 09:21:47;;;;;;;32.53;13.38;;;5.50;99.90;;;5.56;78.02;101366.63;4954776;28;20250;-71
2022/01/10 09:24:16;;;;;;;24.45;14.70;;;5.40;99.90;;;5.77;77.00;101370.75;4954424;29;20230;-72
2022/01/10 09:26:46;;;;;;;20.42;11.98;;;5.50;99.90;;;5.83;76.54;101379.03;4954693;29;20192;-71
2022/01/10 09:29:17;;;;;;;25.52;13.18;;;5.60;99.90;;;5.68;77.10;101380.59;4955005;28;20336;-72
2022/01/10 09:31:47;;;;;;;27.60;14.40;;;5.60;99.90;;;5.78;76.79;101393.91;4955308;28;20236;-71
2022/01/10 09:34:17;;;;;;;23.17;12.00;;;5.60;99.90;;;5.63;76.76;101388.28;4954988;28;20235;-71
2022/01/10 09:36:47;;;;;;;30.38;13.65;;;5.60;99.90;;;5.49;77.44;101397.78;4969856;28;20204;-72
2022/01/10 09:39:16;;;;;;;20.55;12.93;;;5.50;99.90;;;5.59;77.14;101403.88;4955148;28;20196;-70
2022/01/10 09:41:44;;;;;;;19.27;12.70;;;5.50;99.90;;;5.51;77.07;101411.88;4952851;28;20355;-71
2022/01/10 09:44:13;;;;;;;20.88;11.75;;;5.50;99.90;;;5.51;77.42;101417.25;4955655;29;20227;-69
2022/01/10 09:46:42;;;;;;;21.52;13.38;;;5.50;99.90;;;5.58;77.97;101412.94;4954435;29;20672;-68
2022/01/10 09:49:14;;;;;;;24.23;14.27;;;5.50;99.90;;;5.71;77.15;101422.44;4957287;29;20207;-70
2022/01/10 09:51:43;;;;;;;23.10;12.90;;;5.60;99.90;;;5.65;77.18;101423.91;4954539;29;20266;-71
2022/01/10 09:54:12;;;;;;;33.28;14.35;;;5.50;99.90;;;5.61;77.23;101425.22;4953730;28;20210;-72
2022/01/10 09:56:43;;;;;;;18.45;12.13;;;5.60;99.90;;;5.77;76.96;101427.16;4955234;28;20279;-72
2022/01/10 09:59:12;;;;;;;24.77;13.38;;;5.60;99.90;;;5.89;76.67;101436.66;4955185;29;20192;-70
2022/01/10 10:01:49;;;;;;;18.27;14.00;;;5.70;99.90;;;5.90;76.29;101444.56;4954505;28;20635;-71
2022/01/10 10:04:19;;;;;;;23.55;11.80;;;5.80;99.90;;;6.05;75.79;101445.66;4955620;29;20179;-73
2022/01/10 10:06:49;;;;;;;20.40;12.25;;;5.90;99.90;;;5.66;77.10;101453.25;4955948;29;20203;-69
2022/01/10 10:09:18;;;;;;;20.25;13.90;;;5.80;99.90;;;5.57;77.65;101456.88;4954109;29;20200;-70
2022/01/10 10:11:49;;;;;;;16.20;11.63;;;5.60;99.90;;;5.65;77.74;101459.66;4954359;29;20224;-70
2022/01/10 10:14:23;;;;;;;15.75;11.93;;;5.60;99.90;;;5.59;77.94;101464.78;4969277;28;20211;-70
2022/01/10 10:16:56;;;;;;;22.42;13.05;;;5.60;99.90;;;5.65;77.76;101475.75;4954666;28;20192;-71
2022/01/10 10:19:29;;;;;;;22.77;12.50;;;5.60;99.90;;;5.47;79.07;101474.91;4953650;28;20210;-71
2022/01/10 10:22:00;;;;;;;21.83;14.25;;;5.50;99.90;;;5.66;78.65;101479.28;4955034;28;20307;-71
2022/01/10 10:24:29;;;;;;;24.08;13.07;;;5.60;99.90;;;5.60;78.37;101480.75;4954573;29;20188;-71
2022/01/10 10:26:59;;;;;;;25.77;14.23;;;5.60;99.90;;;5.55;79.01;101483.06;4953892;29;20279;-71
2022/01/10 10:29:29;;;;;;;18.65;12.50;;;5.50;99.90;;;5.71;78.40;101482.34;4954297;29;20195;-70
2022/01/10 10:32:02;;;;;;;25.10;13.63;;;5.60;99.90;;;5.57;78.86;101490.94;4954543;28;20619;-72
2022/01/10 10:34:33;;;;;;;27.67;13.70;;;5.50;99.90;;;5.68;78.11;101494.22;4954331;28;20583;-69